Time;durP1;ratioP1;P1;durP2;ratioP2;P2;SDS_P1;SDS_P2;PMS_P1;PMS_P2;Temp;Humidity;BMP_temperature;BMP_pressure;BME280_temperature;BME280_humidity;BME280_pressure;Samples;Min_cycle;Max_cycle;Signal;HPM_P1;HPM_P2
2023/10/08 00:01:50;;;;;;;12.17;9.57;;;;;;;;;;4995624;28;20471;-66
2023/10/08 00:04:19;;;;;;;13.50;8.57;;;;;;;;;;4995466;28;20426;-66
2023/10/08 00:06:46;;;;;;;10.33;9.27;;;;;;;;;;4994058;28;20476;-66
2023/10/08 00:09:14;;;;;;;11.33;9.27;;;;;;;;;;4995142;28;20438;-66
2023/10/08 00:11:43;;;;;;;14.20;9.77;;;;;;;;;;4994024;28;20473;-66
2023/10/08 00:14:17;;;;;;;16.30;10.00;;;;;;;;;;4995077;28;20461;-66
2023/10/08 00:16:43;;;;;;;14.00;10.90;;;;;;;;;;4995206;28;20416;-66
2023/10/08 00:19:13;;;;;;;20.03;11.40;;;;;;;;;;4993695;28;20432;-66
2023/10/08 00:21:44;;;;;;;15.37;9.80;;;;;;;;;;4994968;28;20435;-66
2023/10/08 00:24:12;;;;;;;15.73;10.60;;;;;;;;;;4993787;28;20454;-66
2023/10/08 00:26:40;;;;;;;15.20;11.00;;;;;;;;;;4994297;28;20972;-66
2023/10/08 00:29:16;;;;;;;13.37;10.60;;;;;;;;;;4993377;28;20437;-66
2023/10/08 00:31:45;;;;;;;11.73;8.27;;;;;;;;;;4994936;28;20464;-66
2023/10/08 00:34:11;;;;;;;9.10;7.90;;;;;;;;;;4994917;28;20414;-66
2023/10/08 00:36:38;;;;;;;14.30;9.07;;;;;;;;;;4993931;28;20525;-66
2023/10/08 00:39:08;;;;;;;12.53;7.60;;;;;;;;;;4994622;28;20421;-66
2023/10/08 00:41:34;;;;;;;7.60;6.90;;;;;;;;;;4994717;28;20409;-66
2023/10/08 00:44:00;;;;;;;10.80;7.67;;;;;;;;;;4994903;28;20405;-66
2023/10/08 00:46:31;;;;;;;12.60;7.53;;;;;;;;;;4994390;28;20432;-66
2023/10/08 00:48:57;;;;;;;8.73;6.90;;;;;;;;;;4994571;28;20831;-66
2023/10/08 00:53:52;;;;;;;7.13;6.43;;;;;;;;;;4994188;28;20437;-66
2023/10/08 00:56:19;;;;;;;9.07;6.57;;;;;;;;;;4994317;28;20428;-66
2023/10/08 00:58:52;;;;;;;10.70;7.40;;;;;;;;;;4994430;28;20797;-66
2023/10/08 01:01:20;;;;;;;13.10;9.40;;;;;;;;;;4992726;28;20425;-66
2023/10/08 01:03:50;;;;;;;12.03;9.20;;;;;;;;;;4994629;28;20417;-66
2023/10/08 01:06:20;;;;;;;9.33;8.37;;;;;;;;;;4994150;28;20430;-66
2023/10/08 01:08:52;;;;;;;14.33;9.30;;;;;;;;;;4994423;28;20472;-66
2023/10/08 01:11:46;;;;;;;13.13;9.10;;;;;;;;;;4994190;28;20456;-66
2023/10/08 01:14:12;;;;;;;10.53;8.90;;;;;;;;;;4994332;28;20421;-66
2023/10/08 01:16:39;;;;;;;13.80;9.00;;;;;;;;;;4992857;28;20473;-66
2023/10/08 01:19:12;;;;;;;18.57;9.37;;;;;;;;;;4993900;28;20444;-66
2023/10/08 01:21:39;;;;;;;15.97;9.90;;;;;;;;;;4993946;28;20476;-62
2023/10/08 01:24:08;;;;;;;15.93;9.37;;;;;;;;;;4993564;28;20979;-62
2023/10/08 01:26:38;;;;;;;8.20;7.20;;;;;;;;;;4993302;28;20433;-62
2023/10/08 01:29:09;;;;;;;9.43;7.03;;;;;;;;;;4993419;28;20431;-62
2023/10/08 01:31:36;;;;;;;8.00;7.20;;;;;;;;;;4993382;28;20503;-62
2023/10/08 01:34:04;;;;;;;9.20;6.63;;;;;;;;;;4993498;28;20834;-62
2023/10/08 01:36:31;;;;;;;8.13;6.17;;;;;;;;;;4993228;28;20452;-62
2023/10/08 01:38:58;;;;;;;11.73;5.60;;;;;;;;;;4992605;28;20441;-62
2023/10/08 01:41:30;;;;;;;6.97;6.30;;;;;;;;;;4992999;28;20460;-61
2023/10/08 01:43:56;;;;;;;7.03;6.33;;;;;;;;;;4992792;28;20504;-62
2023/10/08 01:46:22;;;;;;;9.70;7.07;;;;;;;;;;4993196;28;20437;-62
2023/10/08 01:48:56;;;;;;;8.70;6.30;;;;;;;;;;4993070;28;20422;-62
2023/10/08 01:51:25;;;;;;;7.63;6.30;;;;;;;;;;4992651;28;20473;-62
2023/10/08 01:53:59;;;;;;;12.30;6.30;;;;;;;;;;4992689;28;20471;-62
2023/10/08 01:56:27;;;;;;;8.10;7.27;;;;;;;;;;4993033;28;20484;-62
2023/10/08 01:58:53;;;;;;;11.63;8.30;;;;;;;;;;4993461;28;20410;-62
2023/10/08 02:01:22;;;;;;;19.10;10.17;;;;;;;;;;4992785;28;20808;-62
2023/10/08 02:03:48;;;;;;;13.17;9.90;;;;;;;;;;4993126;28;20955;-62
2023/10/08 02:06:14;;;;;;;12.33;9.70;;;;;;;;;;4992993;28;20436;-62
2023/10/08 02:08:40;;;;;;;11.70;8.93;;;;;;;;;;4992645;28;20901;-62
2023/10/08 02:11:08;;;;;;;15.10;9.10;;;;;;;;;;4992573;28;20479;-62
2023/10/08 02:13:34;;;;;;;19.87;9.57;;;;;;;;;;4991477;28;20414;-62
2023/10/08 02:16:01;;;;;;;11.70;9.70;;;;;;;;;;4992977;28;20420;-61
2023/10/08 02:18:29;;;;;;;21.73;14.37;;;;;;;;;;4992939;28;20413;-62
2023/10/08 02:20:55;;;;;;;20.87;14.10;;;;;;;;;;4992887;28;20429;-62
2023/10/08 02:23:21;;;;;;;22.27;15.53;;;;;;;;;;4992564;28;20447;-62
2023/10/08 02:25:47;;;;;;;15.73;13.57;;;;;;;;;;4992380;28;20504;-62
2023/10/08 02:28:18;;;;;;;16.53;13.30;;;;;;;;;;4992559;28;20452;-62
2023/10/08 02:30:44;;;;;;;21.73;11.17;;;;;;;;;;4992568;28;20508;-62
2023/10/08 02:33:16;;;;;;;13.70;9.63;;;;;;;;;;4992791;28;20453;-62
2023/10/08 02:35:43;;;;;;;9.57;7.87;;;;;;;;;;4992988;28;20386;-62
2023/10/08 02:38:10;;;;;;;9.10;7.20;;;;;;;;;;4992257;28;20417;-62
2023/10/08 02:40:38;;;;;;;8.63;7.23;;;;;;;;;;4992349;28;20418;-62
2023/10/08 02:43:08;;;;;;;10.20;7.00;;;;;;;;;;4992611;28;20791;-62
2023/10/08 02:45:38;;;;;;;12.23;7.20;;;;;;;;;;4992516;28;20940;-62
2023/10/08 02:48:11;;;;;;;9.77;7.70;;;;;;;;;;4991344;28;20422;-62
2023/10/08 02:50:39;;;;;;;11.43;7.10;;;;;;;;;;4993832;28;20469;-62
2023/10/08 02:53:10;;;;;;;15.77;6.70;;;;;;;;;;4996759;28;20437;-62
2023/10/08 02:55:41;;;;;;;9.50;6.90;;;;;;;;;;4996220;28;20480;-62
2023/10/08 02:58:11;;;;;;;7.63;6.90;;;;;;;;;;4995976;28;20908;-62
2023/10/08 03:00:40;;;;;;;8.70;7.43;;;;;;;;;;4996185;28;20515;-62
2023/10/08 03:03:15;;;;;;;11.30;7.97;;;;;;;;;;4996164;28;20750;-62
2023/10/08 03:05:41;;;;;;;10.13;7.43;;;;;;;;;;4995869;28;20416;-62
2023/10/08 03:08:13;;;;;;;12.60;8.17;;;;;;;;;;4995866;28;20432;-62
2023/10/08 03:10:40;;;;;;;17.93;8.20;;;;;;;;;;4995824;28;20625;-62
2023/10/08 03:13:07;;;;;;;10.50;7.97;;;;;;;;;;4996167;28;20940;-62
2023/10/08 03:18:21;;;;;;;18.13;9.17;;;;;;;;;;4995883;28;20845;-62
2023/10/08 03:20:49;;;;;;;13.07;8.40;;;;;;;;;;4996076;28;20896;-62
2023/10/08 03:23:23;;;;;;;17.47;8.53;;;;;;;;;;4995923;28;20421;-63
2023/10/08 03:25:58;;;;;;;14.43;8.40;;;;;;;;;;4995763;28;20433;-61
2023/10/08 03:28:24;;;;;;;17.90;8.70;;;;;;;;;;4995892;28;20405;-62
2023/10/08 03:31:02;;;;;;;8.40;7.50;;;;;;;;;;4995742;28;20461;-62
2023/10/08 03:33:29;;;;;;;9.00;7.70;;;;;;;;;;4995943;28;20411;-62
2023/10/08 03:35:57;;;;;;;10.83;7.00;;;;;;;;;;4995589;28;20406;-62
2023/10/08 03:39:12;;;;;;;17.13;9.50;;;;;;;;;;4995777;28;20407;-62
2023/10/08 03:41:16;;;;;;;10.00;7.50;;;;;;;;;;4992576;28;20424;-62
2023/10/08 03:46:31;;;;;;;13.23;6.83;;;;;;;;;;4995725;28;20432;-62
2023/10/08 03:48:57;;;;;;;7.77;6.47;;;;;;;;;;4995522;28;20932;-62
2023/10/08 03:51:27;;;;;;;9.33;6.87;;;;;;;;;;4995620;28;20478;-62
2023/10/08 03:54:06;;;;;;;7.97;6.90;;;;;;;;;;4995592;28;20452;-62
2023/10/08 03:56:36;;;;;;;9.90;7.40;;;;;;;;;;4995467;28;20949;-62
2023/10/08 03:59:19;;;;;;;11.57;6.57;;;;;;;;;;4995841;28;20416;-62
2023/10/08 04:01:46;;;;;;;8.77;5.80;;;;;;;;;;4995037;28;20438;-62
2023/10/08 04:04:15;;;;;;;12.30;7.70;;;;;;;;;;4994810;28;20445;-62
2023/10/08 04:06:51;;;;;;;10.20;7.00;;;;;;;;;;4995068;28;20441;-62
2023/10/08 04:09:31;;;;;;;9.07;6.87;;;;;;;;;;4995225;28;20809;-62
2023/10/08 04:12:03;;;;;;;10.73;6.30;;;;;;;;;;4995158;28;20456;-62
2023/10/08 04:14:30;;;;;;;8.13;6.40;;;;;;;;;;4995474;28;20426;-62
2023/10/08 04:16:58;;;;;;;6.90;6.30;;;;;;;;;;4993948;28;20417;-62
2023/10/08 04:19:27;;;;;;;8.53;7.00;;;;;;;;;;4995005;28;20409;-62
2023/10/08 04:21:56;;;;;;;9.43;6.93;;;;;;;;;;4995434;28;20924;-61
2023/10/08 04:24:36;;;;;;;11.90;6.83;;;;;;;;;;4994857;28;20936;-61
2023/10/08 04:27:05;;;;;;;10.33;6.53;;;;;;;;;;4995126;28;20866;-61
2023/10/08 04:29:32;;;;;;;11.03;6.90;;;;;;;;;;4995418;28;20485;-62
2023/10/08 04:32:07;;;;;;;6.83;6.20;;;;;;;;;;4994797;28;20433;-62
2023/10/08 04:34:33;;;;;;;9.67;6.10;;;;;;;;;;4994748;28;20409;-62
2023/10/08 04:37:12;;;;;;;9.43;6.00;;;;;;;;;;4994621;28;20803;-62
2023/10/08 04:39:40;;;;;;;9.70;7.20;;;;;;;;;;4994487;28;20428;-62
2023/10/08 04:42:14;;;;;;;16.33;7.97;;;;;;;;;;4994163;28;20916;-62
2023/10/08 04:44:43;;;;;;;14.77;8.63;;;;;;;;;;4994556;28;20451;-62
2023/10/08 04:47:31;;;;;;;8.47;7.60;;;;;;;;;;4994402;28;20409;-62
2023/10/08 04:49:57;;;;;;;13.23;8.47;;;;;;;;;;4992605;28;20461;-62
2023/10/08 04:52:27;;;;;;;17.10;8.63;;;;;;;;;;4994296;28;20572;-62
2023/10/08 04:54:54;;;;;;;14.13;7.30;;;;;;;;;;4994447;28;20414;-61
2023/10/08 04:57:25;;;;;;;12.23;7.87;;;;;;;;;;4994103;28;20436;-62
2023/10/08 04:59:51;;;;;;;11.53;7.17;;;;;;;;;;4994158;28;20780;-62
2023/10/08 05:02:26;;;;;;;13.10;6.63;;;;;;;;;;4994224;28;20883;-61
2023/10/08 05:08:00;;;;;;;6.23;5.63;;;;;;;;;;4994507;28;20458;-61
2023/10/08 05:18:37;;;;;;;7.73;5.73;;;;;;;;;;4985047;28;20418;-61
2023/10/08 05:21:25;;;;;;;7.33;6.03;;;;;;;;;;4993780;28;20491;-61
2023/10/08 05:26:41;;;;;;;8.23;5.30;;;;;;;;;;4993405;28;20464;-61
2023/10/08 05:35:30;;;;;;;8.33;6.33;;;;;;;;;;4993728;28;20448;-61
2023/10/08 05:37:42;;;;;;;9.30;5.17;;;;;;;;;;4993391;28;21007;-61
2023/10/08 05:40:54;;;;;;;13.60;6.07;;;;;;;;;;4993545;28;20452;-61
2023/10/08 05:43:23;;;;;;;5.97;5.30;;;;;;;;;;4993400;28;20476;-61
2023/10/08 05:46:19;;;;;;;6.20;5.17;;;;;;;;;;4993446;28;20429;-61
2023/10/08 05:48:45;;;;;;;6.03;5.40;;;;;;;;;;4992887;28;20417;-61
2023/10/08 05:51:23;;;;;;;6.80;5.30;;;;;;;;;;4991922;28;20902;-61
2023/10/08 05:53:55;;;;;;;10.30;6.27;;;;;;;;;;4992721;28;20834;-61
2023/10/08 05:56:42;;;;;;;7.50;6.30;;;;;;;;;;4992165;28;20424;-61
2023/10/08 05:59:17;;;;;;;11.77;5.63;;;;;;;;;;4992123;28;20437;-61
2023/10/08 06:01:46;;;;;;;6.93;5.03;;;;;;;;;;4992188;28;20869;-61
2023/10/08 06:04:42;;;;;;;7.10;5.47;;;;;;;;;;4992445;28;20437;-61
2023/10/08 06:07:20;;;;;;;7.50;5.20;;;;;;;;;;4991942;28;20799;-61
2023/10/08 06:10:01;;;;;;;8.40;5.53;;;;;;;;;;4993158;28;20487;-61
2023/10/08 06:12:30;;;;;;;7.03;5.50;;;;;;;;;;4993045;28;20433;-61
2023/10/08 06:15:11;;;;;;;6.27;5.33;;;;;;;;;;4993088;28;20813;-61
2023/10/08 06:17:56;;;;;;;18.47;11.00;;;;;;;;;;4993038;28;20397;-61
2023/10/08 06:20:28;;;;;;;27.47;20.13;;;;;;;;;;4993054;28;20430;-61
2023/10/08 06:23:03;;;;;;;8.70;7.30;;;;;;;;;;4992708;28;20417;-61
2023/10/08 06:25:31;;;;;;;10.60;6.93;;;;;;;;;;4992733;28;20467;-61
2023/10/08 06:28:02;;;;;;;9.03;6.53;;;;;;;;;;4992760;28;20428;-61
2023/10/08 06:30:34;;;;;;;7.50;6.60;;;;;;;;;;4991526;28;20551;-61
2023/10/08 06:33:00;;;;;;;8.20;6.67;;;;;;;;;;4993154;28;20413;-61
2023/10/08 06:35:28;;;;;;;9.23;6.47;;;;;;;;;;4992946;28;20460;-61
2023/10/08 06:37:59;;;;;;;6.10;5.60;;;;;;;;;;4993062;28;20436;-61
2023/10/08 06:43:11;;;;;;;9.57;5.70;;;;;;;;;;4993088;28;20798;-61
2023/10/08 06:45:39;;;;;;;9.13;7.90;;;;;;;;;;4991701;28;20519;-61
2023/10/08 06:48:06;;;;;;;6.50;5.60;;;;;;;;;;4992824;28;20516;-61
2023/10/08 06:50:35;;;;;;;6.57;5.97;;;;;;;;;;4992925;28;20460;-61
2023/10/08 06:53:07;;;;;;;6.87;5.87;;;;;;;;;;4992688;28;20500;-61
2023/10/08 06:55:35;;;;;;;9.73;7.67;;;;;;;;;;4992815;28;20428;-61
2023/10/08 06:58:05;;;;;;;10.00;7.00;;;;;;;;;;4992624;28;20410;-61
2023/10/08 07:00:40;;;;;;;10.30;6.37;;;;;;;;;;4992979;28;20460;-61
2023/10/08 07:03:14;;;;;;;7.13;6.10;;;;;;;;;;4992627;28;20413;-61
2023/10/08 07:05:40;;;;;;;7.57;6.30;;;;;;;;;;4992417;28;20931;-61
2023/10/08 07:08:07;;;;;;;11.37;6.10;;;;;;;;;;4992415;28;20417;-61
2023/10/08 07:10:37;;;;;;;11.90;7.07;;;;;;;;;;4992415;28;20992;-61
2023/10/08 07:13:03;;;;;;;10.07;6.03;;;;;;;;;;4992605;28;20426;-61
2023/10/08 07:15:32;;;;;;;86.33;64.40;;;;;;;;;;4992628;28;20413;-61
2023/10/08 07:18:09;;;;;;;25.57;20.43;;;;;;;;;;4992409;28;20425;-61
2023/10/08 07:20:38;;;;;;;8.83;6.90;;;;;;;;;;4992700;28;20469;-61
2023/10/08 07:23:12;;;;;;;10.13;5.67;;;;;;;;;;4992399;28;20414;-61
2023/10/08 07:25:38;;;;;;;9.23;5.63;;;;;;;;;;4992384;28;20433;-61
2023/10/08 07:28:12;;;;;;;16.00;6.80;;;;;;;;;;4992252;28;20500;-61
2023/10/08 07:30:43;;;;;;;8.83;5.83;;;;;;;;;;4992267;28;20503;-61
2023/10/08 07:33:17;;;;;;;12.13;5.90;;;;;;;;;;4993162;28;20417;-61
2023/10/08 07:35:51;;;;;;;6.40;5.33;;;;;;;;;;4992453;28;20515;-61
2023/10/08 07:38:17;;;;;;;7.90;5.97;;;;;;;;;;4995756;28;20510;-62
2023/10/08 07:40:44;;;;;;;6.90;4.67;;;;;;;;;;4996363;28;20405;-61
2023/10/08 07:43:10;;;;;;;6.33;5.57;;;;;;;;;;4996085;28;20462;-61
2023/10/08 07:45:36;;;;;;;10.13;5.53;;;;;;;;;;4995781;28;20443;-61
2023/10/08 07:48:09;;;;;;;9.37;5.87;;;;;;;;;;4995606;28;20425;-61
2023/10/08 07:50:37;;;;;;;5.77;5.20;;;;;;;;;;4995548;28;20482;-61
2023/10/08 07:53:04;;;;;;;8.63;5.73;;;;;;;;;;4995655;28;20438;-62
2023/10/08 07:55:32;;;;;;;34.73;29.80;;;;;;;;;;4995801;28;20443;-61
2023/10/08 07:57:59;;;;;;;7.43;5.20;;;;;;;;;;4995195;28;20421;-62
2023/10/08 08:00:30;;;;;;;8.30;5.50;;;;;;;;;;4995670;28;20783;-61
2023/10/08 08:02:57;;;;;;;12.67;5.53;;;;;;;;;;4994786;28;20447;-61
2023/10/08 08:05:23;;;;;;;12.53;5.70;;;;;;;;;;4994516;28;20503;-62
2023/10/08 08:07:53;;;;;;;10.63;5.70;;;;;;;;;;4994520;28;20428;-62
2023/10/08 08:10:23;;;;;;;13.13;5.17;;;;;;;;;;4994529;28;20567;-62
2023/10/08 08:12:51;;;;;;;6.17;5.17;;;;;;;;;;4994848;28;20436;-62
2023/10/08 08:15:21;;;;;;;9.57;5.27;;;;;;;;;;4995246;28;20418;-61
2023/10/08 08:17:48;;;;;;;12.67;5.60;;;;;;;;;;4995398;28;20421;-61
2023/10/08 08:20:34;;;;;;;7.73;4.80;;;;;;;;;;4994993;28;20421;-62
2023/10/08 08:23:06;;;;;;;5.50;4.80;;;;;;;;;;4994989;28;20524;-61
2023/10/08 08:25:45;;;;;;;11.70;5.67;;;;;;;;;;4994756;28;20452;-61
2023/10/08 08:28:17;;;;;;;9.30;5.30;;;;;;;;;;4993636;28;20992;-62
2023/10/08 08:30:46;;;;;;;7.20;4.60;;;;;;;;;;4995220;28;20472;-61
2023/10/08 08:33:13;;;;;;;11.97;6.10;;;;;;;;;;4994274;28;20503;-62
2023/10/08 08:35:40;;;;;;;8.90;6.07;;;;;;;;;;4995200;28;20437;-61
2023/10/08 08:38:08;;;;;;;8.53;5.57;;;;;;;;;;4995300;28;20419;-61
2023/10/08 08:40:34;;;;;;;11.97;5.37;;;;;;;;;;4995220;28;20812;-62
2023/10/08 08:43:04;;;;;;;10.10;5.73;;;;;;;;;;4994943;28;20434;-61
2023/10/08 08:45:33;;;;;;;12.33;5.63;;;;;;;;;;4994874;28;20467;-61
2023/10/08 08:48:02;;;;;;;9.30;5.53;;;;;;;;;;4994396;28;20451;-62
2023/10/08 08:50:31;;;;;;;7.20;4.33;;;;;;;;;;4994829;28;20478;-62
2023/10/08 08:53:00;;;;;;;14.10;4.80;;;;;;;;;;4995072;28;20420;-62
2023/10/08 08:55:28;;;;;;;9.07;5.53;;;;;;;;;;4994855;28;20797;-62
2023/10/08 08:57:55;;;;;;;9.47;5.07;;;;;;;;;;4994957;28;20495;-62
2023/10/08 09:00:25;;;;;;;25.53;5.87;;;;;;;;;;4995117;28;20473;-62
2023/10/08 09:02:52;;;;;;;13.63;5.43;;;;;;;;;;4994517;28;20456;-62
2023/10/08 09:05:34;;;;;;;8.17;4.73;;;;;;;;;;4994621;28;20452;-62
2023/10/08 09:08:03;;;;;;;13.20;5.00;;;;;;;;;;4994061;28;20434;-62
2023/10/08 09:10:32;;;;;;;7.43;4.50;;;;;;;;;;4994570;28;20994;-62
2023/10/08 09:12:59;;;;;;;9.40;6.20;;;;;;;;;;4994814;28;20415;-62
2023/10/08 09:15:29;;;;;;;8.77;5.73;;;;;;;;;;4994197;28;20426;-62
2023/10/08 09:18:00;;;;;;;9.43;4.40;;;;;;;;;;4994681;28;20487;-62
2023/10/08 09:20:27;;;;;;;10.13;5.13;;;;;;;;;;4994272;28;20435;-62
2023/10/08 09:23:07;;;;;;;10.33;4.93;;;;;;;;;;4994603;28;20431;-68
2023/10/08 09:25:33;;;;;;;8.20;4.70;;;;;;;;;;4994254;28;20917;-67
2023/10/08 09:27:59;;;;;;;22.70;14.10;;;;;;;;;;4994014;28;20421;-67
2023/10/08 09:30:25;;;;;;;9.17;6.00;;;;;;;;;;4993905;28;20619;-67
2023/10/08 09:32:52;;;;;;;8.53;4.50;;;;;;;;;;4994219;28;20877;-68
2023/10/08 09:35:18;;;;;;;13.00;5.30;;;;;;;;;;4993749;28;20431;-68
2023/10/08 09:37:45;;;;;;;15.73;5.50;;;;;;;;;;4994046;28;20876;-68
2023/10/08 09:40:20;;;;;;;10.30;4.80;;;;;;;;;;4993799;28;20434;-68
2023/10/08 09:42:47;;;;;;;9.30;5.00;;;;;;;;;;4993814;28;20449;-68
2023/10/08 09:45:13;;;;;;;5.93;4.73;;;;;;;;;;4993685;28;20417;-68
2023/10/08 09:47:42;;;;;;;8.33;4.73;;;;;;;;;;4994143;28;20830;-68
2023/10/08 09:50:12;;;;;;;7.50;4.90;;;;;;;;;;4993932;28;20667;-68
2023/10/08 09:53:06;;;;;;;34.10;26.90;;;;;;;;;;4993996;28;20405;-68
2023/10/08 09:55:32;;;;;;;15.43;8.17;;;;;;;;;;4993748;28;20398;-68
2023/10/08 09:57:58;;;;;;;13.73;7.30;;;;;;;;;;4993798;28;20446;-68
2023/10/08 10:00:31;;;;;;;17.70;5.50;;;;;;;;;;4991671;28;20418;-68
2023/10/08 10:03:05;;;;;;;5.10;4.37;;;;;;;;;;4993864;28;20449;-68
2023/10/08 10:05:35;;;;;;;8.63;5.07;;;;;;;;;;4991963;28;20437;-68
2023/10/08 10:08:05;;;;;;;13.20;10.70;;;;;;;;;;4992359;28;20426;-68
2023/10/08 10:10:34;;;;;;;13.00;6.40;;;;;;;;;;4992101;28;20568;-68
2023/10/08 10:13:04;;;;;;;4.97;4.43;;;;;;;;;;4993400;28;20525;-68
2023/10/08 10:15:34;;;;;;;9.57;5.47;;;;;;;;;;4993352;28;20421;-68
2023/10/08 10:18:14;;;;;;;7.60;4.57;;;;;;;;;;4993354;28;20801;-68
2023/10/08 10:20:45;;;;;;;13.30;4.67;;;;;;;;;;4993374;28;20512;-68
2023/10/08 10:23:32;;;;;;;12.10;5.37;;;;;;;;;;4992297;28;20432;-68
2023/10/08 10:26:02;;;;;;;15.97;4.93;;;;;;;;;;4993338;28;20863;-68
2023/10/08 10:28:29;;;;;;;13.30;4.83;;;;;;;;;;4993553;28;20414;-68
2023/10/08 10:30:56;;;;;;;11.30;5.60;;;;;;;;;;4993005;28;20461;-68
2023/10/08 10:33:29;;;;;;;11.13;5.00;;;;;;;;;;4993691;28;20737;-68
2023/10/08 10:35:58;;;;;;;19.17;5.47;;;;;;;;;;4993171;28;20402;-68
2023/10/08 10:38:26;;;;;;;6.70;4.60;;;;;;;;;;4993418;28;20398;-68
2023/10/08 10:40:58;;;;;;;12.23;4.90;;;;;;;;;;4992898;28;20422;-68
2023/10/08 10:43:32;;;;;;;13.80;4.83;;;;;;;;;;4992418;28;20508;-68
2023/10/08 10:48:57;;;;;;;21.73;6.33;;;;;;;;;;4993456;28;20497;-69
2023/10/08 10:51:23;;;;;;;16.57;6.30;;;;;;;;;;4993053;28;20484;-68
2023/10/08 10:54:07;;;;;;;10.80;5.20;;;;;;;;;;4991793;28;20405;-68
2023/10/08 10:56:40;;;;;;;10.83;5.17;;;;;;;;;;4993021;28;20416;-68
2023/10/08 10:59:27;;;;;;;15.40;4.93;;;;;;;;;;4993136;28;20488;-68
2023/10/08 11:02:00;;;;;;;8.73;4.53;;;;;;;;;;4993153;28;20434;-68
2023/10/08 11:04:31;;;;;;;8.10;4.57;;;;;;;;;;4993058;28;20896;-68
2023/10/08 11:06:58;;;;;;;11.53;4.37;;;;;;;;;;4992906;28;20439;-68
2023/10/08 11:09:44;;;;;;;9.53;5.30;;;;;;;;;;4993364;28;20404;-68
2023/10/08 11:12:13;;;;;;;12.73;5.20;;;;;;;;;;4994615;28;20942;-68
2023/10/08 11:14:42;;;;;;;12.27;5.23;;;;;;;;;;4996673;28;20881;-68
2023/10/08 11:17:16;;;;;;;8.70;5.40;;;;;;;;;;4996785;28;20428;-68
2023/10/08 11:19:45;;;;;;;9.67;4.57;;;;;;;;;;4996721;28;20410;-68
2023/10/08 11:22:16;;;;;;;10.87;5.27;;;;;;;;;;4996403;28;20516;-68
2023/10/08 11:24:44;;;;;;;6.47;4.13;;;;;;;;;;4996493;28;20437;-68
2023/10/08 11:27:15;;;;;;;12.07;4.80;;;;;;;;;;4996514;28;20944;-68
2023/10/08 11:29:46;;;;;;;11.67;4.70;;;;;;;;;;4996660;28;20862;-68
2023/10/08 11:32:12;;;;;;;10.43;4.47;;;;;;;;;;4996277;28;20477;-68
2023/10/08 11:34:39;;;;;;;8.03;4.90;;;;;;;;;;4996104;28;20410;-67
2023/10/08 11:37:19;;;;;;;8.40;4.60;;;;;;;;;;4996313;28;20483;-66
2023/10/08 11:39:46;;;;;;;13.30;4.17;;;;;;;;;;4996629;28;20412;-67
2023/10/08 11:44:59;;;;;;;7.83;4.27;;;;;;;;;;4996382;28;20408;-66
2023/10/08 11:47:35;;;;;;;13.00;4.50;;;;;;;;;;4996145;28;20925;-66
2023/10/08 11:50:10;;;;;;;14.50;5.07;;;;;;;;;;4996041;28;20417;-66
2023/10/08 11:52:41;;;;;;;6.50;4.43;;;;;;;;;;4995648;28;20437;-66
2023/10/08 11:55:07;;;;;;;10.90;4.80;;;;;;;;;;4995712;28;20491;-67
2023/10/08 11:57:36;;;;;;;6.10;3.90;;;;;;;;;;4996012;28;20479;-67
2023/10/08 12:00:18;;;;;;;8.10;4.23;;;;;;;;;;4995940;28;20409;-66
2023/10/08 12:02:48;;;;;;;9.40;4.60;;;;;;;;;;4995735;28;21063;-66
2023/10/08 12:05:20;;;;;;;15.70;4.87;;;;;;;;;;4995825;28;20550;-66
2023/10/08 12:07:57;;;;;;;11.93;4.77;;;;;;;;;;4995774;28;20434;-66
2023/10/08 12:10:23;;;;;;;7.30;4.50;;;;;;;;;;4995854;28;20445;-66
2023/10/08 12:12:55;;;;;;;9.83;4.73;;;;;;;;;;4995296;28;20426;-66
2023/10/08 12:15:22;;;;;;;7.50;5.30;;;;;;;;;;4995637;28;20801;-66
2023/10/08 12:18:24;;;;;;;8.80;4.47;;;;;;;;;;4995382;28;20430;-66
2023/10/08 12:20:47;;;;;;;14.37;5.83;;;;;;;;;;4993208;28;20434;-66
2023/10/08 12:23:25;;;;;;;14.50;5.07;;;;;;;;;;4994170;28;20444;-66
2023/10/08 12:25:55;;;;;;;16.93;5.10;;;;;;;;;;4995470;28;20429;-66
2023/10/08 12:28:23;;;;;;;9.13;4.67;;;;;;;;;;4995392;28;20524;-66
2023/10/08 12:30:52;;;;;;;11.53;4.90;;;;;;;;;;4995075;28;20874;-66
2023/10/08 12:33:21;;;;;;;15.47;5.00;;;;;;;;;;4995211;28;20537;-66
2023/10/08 12:35:48;;;;;;;10.30;4.67;;;;;;;;;;4994983;28;20901;-66
2023/10/08 12:38:15;;;;;;;10.90;5.47;;;;;;;;;;4994795;28;20512;-66
2023/10/08 12:40:47;;;;;;;9.87;4.97;;;;;;;;;;4995343;28;20410;-66
2023/10/08 12:43:19;;;;;;;9.97;4.37;;;;;;;;;;4994651;28;20423;-66
2023/10/08 12:45:52;;;;;;;11.37;5.00;;;;;;;;;;4995062;28;20410;-66
2023/10/08 12:48:26;;;;;;;11.93;4.37;;;;;;;;;;4994631;28;20711;-66
2023/10/08 12:50:58;;;;;;;27.63;4.60;;;;;;;;;;4995139;28;20449;-66
2023/10/08 12:53:36;;;;;;;23.27;5.60;;;;;;;;;;4995000;28;20788;-66
2023/10/08 12:56:06;;;;;;;11.73;5.57;;;;;;;;;;4994816;28;20422;-67
2023/10/08 12:58:44;;;;;;;17.73;5.50;;;;;;;;;;4994810;28;20406;-67
2023/10/08 13:01:17;;;;;;;19.47;5.23;;;;;;;;;;4994673;28;20786;-66
2023/10/08 13:03:47;;;;;;;12.00;4.70;;;;;;;;;;4994493;28;20464;-67
2023/10/08 13:06:31;;;;;;;15.60;5.20;;;;;;;;;;4994664;28;20422;-66
2023/10/08 13:08:57;;;;;;;12.30;4.70;;;;;;;;;;4994475;28;20469;-66
2023/10/08 13:11:25;;;;;;;16.87;5.37;;;;;;;;;;4994208;28;20461;-66
2023/10/08 13:13:51;;;;;;;17.97;5.23;;;;;;;;;;4994253;28;20509;-66
2023/10/08 13:16:18;;;;;;;12.00;5.20;;;;;;;;;;4994392;28;20409;-68
2023/10/08 13:18:45;;;;;;;14.13;5.63;;;;;;;;;;4994573;28;20960;-66
2023/10/08 13:21:13;;;;;;;10.57;5.27;;;;;;;;;;4993870;28;20425;-66
2023/10/08 13:23:40;;;;;;;16.00;5.70;;;;;;;;;;4993906;28;20901;-66
2023/10/08 13:26:09;;;;;;;19.03;5.77;;;;;;;;;;4994273;28;20437;-66
2023/10/08 13:28:35;;;;;;;25.03;6.43;;;;;;;;;;4993985;28;20461;-66
2023/10/08 13:31:09;;;;;;;29.07;6.47;;;;;;;;;;4994106;28;20860;-66
2023/10/08 13:33:35;;;;;;;22.50;6.17;;;;;;;;;;4993965;28;20438;-66
2023/10/08 13:36:01;;;;;;;19.47;5.83;;;;;;;;;;4993734;28;20497;-66
2023/10/08 13:38:30;;;;;;;14.50;5.67;;;;;;;;;;4993898;28;20453;-66
2023/10/08 13:41:02;;;;;;;18.60;5.10;;;;;;;;;;4993621;28;20429;-66
2023/10/08 13:43:34;;;;;;;16.20;5.43;;;;;;;;;;4993707;28;20953;-66
2023/10/08 13:46:15;;;;;;;14.00;5.77;;;;;;;;;;4993693;28;20430;-66
2023/10/08 13:48:48;;;;;;;8.93;4.80;;;;;;;;;;4993664;28;20434;-66
2023/10/08 13:51:20;;;;;;;11.43;5.20;;;;;;;;;;4993767;28;20491;-66
2023/10/08 13:53:52;;;;;;;12.40;5.33;;;;;;;;;;4993872;28;20434;-66
2023/10/08 13:56:20;;;;;;;16.80;5.60;;;;;;;;;;4993799;28;20405;-66
2023/10/08 13:58:49;;;;;;;20.47;5.90;;;;;;;;;;4993232;28;20438;-66
2023/10/08 14:01:19;;;;;;;21.33;5.93;;;;;;;;;;4993453;28;20497;-66
2023/10/08 14:03:56;;;;;;;12.83;4.90;;;;;;;;;;4993398;28;20552;-66
2023/10/08 14:06:22;;;;;;;17.27;5.17;;;;;;;;;;4993049;28;20417;-66
2023/10/08 14:08:51;;;;;;;14.60;5.23;;;;;;;;;;4993582;28;20438;-66
2023/10/08 14:11:23;;;;;;;15.50;5.40;;;;;;;;;;4993430;28;20457;-66
2023/10/08 14:13:51;;;;;;;14.03;5.17;;;;;;;;;;4993303;28;20428;-66
2023/10/08 14:16:17;;;;;;;18.93;5.50;;;;;;;;;;4993250;28;20441;-66
2023/10/08 14:18:50;;;;;;;17.60;6.13;;;;;;;;;;4993131;28;20414;-66
2023/10/08 14:21:18;;;;;;;11.00;4.40;;;;;;;;;;4992064;28;20433;-66
2023/10/08 14:23:44;;;;;;;11.83;5.17;;;;;;;;;;4993200;28;20418;-66
2023/10/08 14:26:15;;;;;;;11.63;4.80;;;;;;;;;;4992519;28;20441;-66
2023/10/08 14:28:58;;;;;;;14.80;5.00;;;;;;;;;;4992990;28;20418;-66
2023/10/08 14:31:26;;;;;;;18.30;5.03;;;;;;;;;;4992835;28;21023;-66
2023/10/08 14:33:59;;;;;;;15.23;4.83;;;;;;;;;;4993184;28;20436;-66
2023/10/08 14:44:40;;;;;;;22.60;5.67;;;;;;;;;;4992813;28;20468;-66
2023/10/08 14:47:09;;;;;;;14.73;6.23;;;;;;;;;;4992183;28;20414;-66
2023/10/08 14:49:35;;;;;;;23.67;5.60;;;;;;;;;;4992546;28;20426;-66
2023/10/08 14:52:05;;;;;;;16.40;4.83;;;;;;;;;;4992582;28;20479;-66
2023/10/08 14:54:33;;;;;;;22.53;5.50;;;;;;;;;;4992699;28;20421;-66
2023/10/08 14:56:59;;;;;;;24.97;6.10;;;;;;;;;;4992673;28;20410;-66
2023/10/08 14:59:28;;;;;;;22.63;5.73;;;;;;;;;;4992623;28;20468;-66
2023/10/08 15:01:54;;;;;;;15.90;6.07;;;;;;;;;;4991691;28;20429;-66
2023/10/08 15:04:21;;;;;;;13.40;5.63;;;;;;;;;;4993168;28;20445;-66
2023/10/08 15:06:47;;;;;;;15.93;5.60;;;;;;;;;;4992615;28;20433;-66
2023/10/08 15:09:21;;;;;;;16.23;5.50;;;;;;;;;;4992912;28;20509;-66
2023/10/08 15:11:51;;;;;;;28.73;7.07;;;;;;;;;;4992784;28;20961;-66
2023/10/08 15:14:19;;;;;;;19.30;7.07;;;;;;;;;;4992885;28;20417;-66
2023/10/08 15:16:52;;;;;;;16.13;5.90;;;;;;;;;;4992508;28;20417;-66
2023/10/08 15:19:21;;;;;;;19.63;4.90;;;;;;;;;;4993680;28;20444;-66
2023/10/08 15:21:53;;;;;;;20.23;5.50;;;;;;;;;;4992725;28;20472;-66
2023/10/08 15:24:23;;;;;;;24.10;6.10;;;;;;;;;;4992709;28;20429;-66
2023/10/08 15:26:52;;;;;;;18.03;6.33;;;;;;;;;;4992377;28;20798;-66
2023/10/08 15:29:21;;;;;;;24.80;6.80;;;;;;;;;;4992647;28;20440;-66
2023/10/08 15:31:49;;;;;;;22.17;5.67;;;;;;;;;;4992554;28;20972;-66
2023/10/08 15:34:16;;;;;;;24.57;5.87;;;;;;;;;;4992681;28;20728;-67
2023/10/08 15:36:44;;;;;;;19.30;6.30;;;;;;;;;;4992586;28;20405;-67
2023/10/08 15:39:22;;;;;;;20.07;5.80;;;;;;;;;;4992293;28;20950;-67